sensor_id;sensor_type;location;lat;lon;timestamp;P1;durP1;ratioP1;P2;durP2;ratioP2
29816;SDS011;16805;52.956;5.906;2024-02-21T00:01:33;13.23;;;2.15;;
29816;SDS011;16805;52.956;5.906;2024-02-21T00:03:58;5.93;;;1.35;;
29816;SDS011;16805;52.956;5.906;2024-02-21T00:06:24;12.20;;;1.17;;
29816;SDS011;16805;52.956;5.906;2024-02-21T00:08:51;4.95;;;0.93;;
29816;SDS011;16805;52.956;5.906;2024-02-21T00:11:16;7.57;;;1.25;;
29816;SDS011;16805;52.956;5.906;2024-02-21T00:13:42;12.55;;;1.52;;
29816;SDS011;16805;52.956;5.906;2024-02-21T00:16:09;4.38;;;1.42;;
29816;SDS011;16805;52.956;5.906;2024-02-21T00:18:37;7.82;;;1.80;;
29816;SDS011;16805;52.956;5.906;2024-02-21T00:21:02;8.90;;;2.13;;
29816;SDS011;16805;52.956;5.906;2024-02-21T00:23:28;8.50;;;1.92;;
29816;SDS011;16805;52.956;5.906;2024-02-21T00:25:56;5.18;;;1.38;;
29816;SDS011;16805;52.956;5.906;2024-02-21T00:28:22;20.05;;;1.75;;
29816;SDS011;16805;52.956;5.906;2024-02-21T00:31:00;17.95;;;1.95;;
29816;SDS011;16805;52.956;5.906;2024-02-21T00:33:26;9.05;;;1.55;;
29816;SDS011;16805;52.956;5.906;2024-02-21T00:35:54;5.20;;;1.13;;
29816;SDS011;16805;52.956;5.906;2024-02-21T00:38:27;4.82;;;1.20;;
29816;SDS011;16805;52.956;5.906;2024-02-21T00:40:54;7.68;;;1.55;;
29816;SDS011;16805;52.956;5.906;2024-02-21T00:43:20;8.15;;;1.60;;
29816;SDS011;16805;52.956;5.906;2024-02-21T00:45:50;8.18;;;1.50;;
29816;SDS011;16805;52.956;5.906;2024-02-21T00:48:28;9.00;;;1.90;;
29816;SDS011;16805;52.956;5.906;2024-02-21T00:51:14;10.30;;;1.63;;
29816;SDS011;16805;52.956;5.906;2024-02-21T00:53:46;6.53;;;1.60;;
29816;SDS011;16805;52.956;5.906;2024-02-21T00:56:18;14.35;;;1.88;;
29816;SDS011;16805;52.956;5.906;2024-02-21T00:59:00;14.00;;;2.13;;
29816;SDS011;16805;52.956;5.906;2024-02-21T01:02:12;13.68;;;2.42;;
29816;SDS011;16805;52.956;5.906;2024-02-21T01:05:23;10.10;;;1.73;;
29816;SDS011;16805;52.956;5.906;2024-02-21T01:07:54;12.60;;;2.20;;
29816;SDS011;16805;52.956;5.906;2024-02-21T01:10:25;10.98;;;1.65;;
29816;SDS011;16805;52.956;5.906;2024-02-21T01:12:56;6.60;;;1.60;;
29816;SDS011;16805;52.956;5.906;2024-02-21T01:15:24;13.15;;;2.67;;
29816;SDS011;16805;52.956;5.906;2024-02-21T01:17:51;12.93;;;1.88;;
29816;SDS011;16805;52.956;5.906;2024-02-21T01:20:22;9.88;;;2.17;;
29816;SDS011;16805;52.956;5.906;2024-02-21T01:22:55;14.40;;;1.88;;
29816;SDS011;16805;52.956;5.906;2024-02-21T01:25:21;13.35;;;2.40;;
29816;SDS011;16805;52.956;5.906;2024-02-21T01:27:47;13.02;;;1.90;;
29816;SDS011;16805;52.956;5.906;2024-02-21T01:30:13;12.05;;;2.58;;
29816;SDS011;16805;52.956;5.906;2024-02-21T01:32:40;20.10;;;2.25;;
29816;SDS011;16805;52.956;5.906;2024-02-21T01:35:10;11.30;;;1.63;;
29816;SDS011;16805;52.956;5.906;2024-02-21T01:37:55;10.35;;;2.22;;
29816;SDS011;16805;52.956;5.906;2024-02-21T01:40:23;11.65;;;2.08;;
29816;SDS011;16805;52.956;5.906;2024-02-21T01:42:55;13.75;;;2.10;;
29816;SDS011;16805;52.956;5.906;2024-02-21T01:46:07;15.85;;;2.55;;
29816;SDS011;16805;52.956;5.906;2024-02-21T01:48:38;13.35;;;2.55;;
29816;SDS011;16805;52.956;5.906;2024-02-21T01:58:57;12.70;;;2.38;;
29816;SDS011;16805;52.956;5.906;2024-02-21T02:01:55;7.55;;;1.58;;
29816;SDS011;16805;52.956;5.906;2024-02-21T02:08:38;11.73;;;2.13;;
29816;SDS011;16805;52.956;5.906;2024-02-21T02:22:00;8.48;;;1.52;;
29816;SDS011;16805;52.956;5.906;2024-02-21T02:24:54;10.38;;;1.67;;
29816;SDS011;16805;52.956;5.906;2024-02-21T02:27:30;12.55;;;2.10;;
29816;SDS011;16805;52.956;5.906;2024-02-21T02:33:44;11.05;;;2.63;;
29816;SDS011;16805;52.956;5.906;2024-02-21T02:36:24;13.07;;;2.08;;
29816;SDS011;16805;52.956;5.906;2024-02-21T02:38:50;16.77;;;2.75;;
29816;SDS011;16805;52.956;5.906;2024-02-21T02:41:27;13.57;;;1.67;;
29816;SDS011;16805;52.956;5.906;2024-02-21T02:43:54;12.50;;;1.48;;
29816;SDS011;16805;52.956;5.906;2024-02-21T02:46:29;16.02;;;2.55;;
29816;SDS011;16805;52.956;5.906;2024-02-21T02:49:02;8.57;;;1.80;;
29816;SDS011;16805;52.956;5.906;2024-02-21T02:51:29;11.07;;;2.08;;
29816;SDS011;16805;52.956;5.906;2024-02-21T02:53:58;15.50;;;1.65;;
29816;SDS011;16805;52.956;5.906;2024-02-21T02:59:20;12.70;;;2.25;;
29816;SDS011;16805;52.956;5.906;2024-02-21T03:01:47;8.45;;;1.95;;
29816;SDS011;16805;52.956;5.906;2024-02-21T03:04:28;8.00;;;1.67;;
29816;SDS011;16805;52.956;5.906;2024-02-21T03:07:06;6.75;;;2.00;;
29816;SDS011;16805;52.956;5.906;2024-02-21T03:09:34;8.68;;;2.67;;
29816;SDS011;16805;52.956;5.906;2024-02-21T03:12:01;13.27;;;2.28;;
29816;SDS011;16805;52.956;5.906;2024-02-21T03:14:30;4.68;;;1.65;;
29816;SDS011;16805;52.956;5.906;2024-02-21T03:17:02;12.00;;;2.28;;
29816;SDS011;16805;52.956;5.906;2024-02-21T03:19:35;11.05;;;1.75;;
29816;SDS011;16805;52.956;5.906;2024-02-21T03:22:10;11.68;;;2.75;;
29816;SDS011;16805;52.956;5.906;2024-02-21T03:24:47;17.23;;;2.38;;
29816;SDS011;16805;52.956;5.906;2024-02-21T03:28:10;12.85;;;2.17;;
29816;SDS011;16805;52.956;5.906;2024-02-21T03:30:42;4.40;;;2.03;;
29816;SDS011;16805;52.956;5.906;2024-02-21T03:33:25;9.05;;;2.42;;
29816;SDS011;16805;52.956;5.906;2024-02-21T03:36:01;4.88;;;1.70;;
29816;SDS011;16805;52.956;5.906;2024-02-21T03:38:35;13.40;;;1.92;;
29816;SDS011;16805;52.956;5.906;2024-02-21T03:41:01;8.18;;;1.60;;
29816;SDS011;16805;52.956;5.906;2024-02-21T03:44:09;10.35;;;1.77;;
29816;SDS011;16805;52.956;5.906;2024-02-21T03:46:37;12.10;;;1.90;;
29816;SDS011;16805;52.956;5.906;2024-02-21T03:49:07;6.63;;;1.38;;
29816;SDS011;16805;52.956;5.906;2024-02-21T03:57:35;8.82;;;1.52;;
29816;SDS011;16805;52.956;5.906;2024-02-21T04:03:29;3.67;;;1.20;;
29816;SDS011;16805;52.956;5.906;2024-02-21T04:06:07;7.30;;;1.60;;
29816;SDS011;16805;52.956;5.906;2024-02-21T04:09:31;9.88;;;1.65;;
29816;SDS011;16805;52.956;5.906;2024-02-21T04:16:03;15.40;;;1.95;;
29816;SDS011;16805;52.956;5.906;2024-02-21T04:18:32;14.75;;;2.00;;
29816;SDS011;16805;52.956;5.906;2024-02-21T04:20:58;17.50;;;2.03;;
29816;SDS011;16805;52.956;5.906;2024-02-21T04:23:30;16.00;;;1.98;;
29816;SDS011;16805;52.956;5.906;2024-02-21T04:26:34;6.32;;;1.67;;
29816;SDS011;16805;52.956;5.906;2024-02-21T04:29:04;9.88;;;2.38;;
29816;SDS011;16805;52.956;5.906;2024-02-21T04:31:36;8.48;;;2.05;;
29816;SDS011;16805;52.956;5.906;2024-02-21T04:34:13;11.18;;;2.13;;
29816;SDS011;16805;52.956;5.906;2024-02-21T04:36:47;16.40;;;2.00;;
29816;SDS011;16805;52.956;5.906;2024-02-21T04:39:23;8.80;;;2.10;;
29816;SDS011;16805;52.956;5.906;2024-02-21T04:41:56;4.28;;;1.55;;
29816;SDS011;16805;52.956;5.906;2024-02-21T04:44:43;10.50;;;1.90;;
29816;SDS011;16805;52.956;5.906;2024-02-21T04:47:16;10.75;;;2.53;;
29816;SDS011;16805;52.956;5.906;2024-02-21T04:49:48;11.10;;;2.17;;
29816;SDS011;16805;52.956;5.906;2024-02-21T04:52:43;16.33;;;2.47;;
29816;SDS011;16805;52.956;5.906;2024-02-21T04:55:35;7.50;;;1.47;;
29816;SDS011;16805;52.956;5.906;2024-02-21T04:58:25;5.15;;;1.75;;
29816;SDS011;16805;52.956;5.906;2024-02-21T05:00:55;8.65;;;2.80;;
29816;SDS011;16805;52.956;5.906;2024-02-21T05:03:22;7.68;;;1.83;;
29816;SDS011;16805;52.956;5.906;2024-02-21T05:06:03;6.38;;;2.05;;
29816;SDS011;16805;52.956;5.906;2024-02-21T05:08:33;10.63;;;3.20;;
29816;SDS011;16805;52.956;5.906;2024-02-21T05:11:01;9.88;;;2.40;;
29816;SDS011;16805;52.956;5.906;2024-02-21T05:17:09;11.70;;;2.08;;
29816;SDS011;16805;52.956;5.906;2024-02-21T05:19:43;9.43;;;3.10;;
29816;SDS011;16805;52.956;5.906;2024-02-21T05:26:25;8.70;;;2.75;;
29816;SDS011;16805;52.956;5.906;2024-02-21T05:28:54;5.00;;;2.15;;
29816;SDS011;16805;52.956;5.906;2024-02-21T05:34:23;10.30;;;2.28;;
29816;SDS011;16805;52.956;5.906;2024-02-21T05:36:51;12.50;;;2.38;;
29816;SDS011;16805;52.956;5.906;2024-02-21T05:39:37;12.80;;;2.42;;
29816;SDS011;16805;52.956;5.906;2024-02-21T05:42:17;12.85;;;2.22;;
29816;SDS011;16805;52.956;5.906;2024-02-21T05:44:47;16.27;;;2.33;;
29816;SDS011;16805;52.956;5.906;2024-02-21T05:47:16;9.00;;;2.13;;
29816;SDS011;16805;52.956;5.906;2024-02-21T05:49:48;9.98;;;2.38;;
29816;SDS011;16805;52.956;5.906;2024-02-21T05:52:21;25.58;;;3.00;;
29816;SDS011;16805;52.956;5.906;2024-02-21T06:05:10;23.73;;;4.45;;
29816;SDS011;16805;52.956;5.906;2024-02-21T06:08:07;25.15;;;3.50;;
29816;SDS011;16805;52.956;5.906;2024-02-21T06:10:59;20.55;;;3.88;;
29816;SDS011;16805;52.956;5.906;2024-02-21T06:20:47;22.38;;;3.58;;
29816;SDS011;16805;52.956;5.906;2024-02-21T06:24:19;22.50;;;3.83;;
29816;SDS011;16805;52.956;5.906;2024-02-21T06:31:11;22.77;;;3.80;;
29816;SDS011;16805;52.956;5.906;2024-02-21T06:33:40;25.52;;;3.90;;
29816;SDS011;16805;52.956;5.906;2024-02-21T06:40:20;13.50;;;3.97;;
29816;SDS011;16805;52.956;5.906;2024-02-21T06:43:22;12.43;;;3.65;;
29816;SDS011;16805;52.956;5.906;2024-02-21T06:46:34;18.63;;;4.72;;
29816;SDS011;16805;52.956;5.906;2024-02-21T06:49:39;29.75;;;4.43;;
29816;SDS011;16805;52.956;5.906;2024-02-21T06:53:08;14.40;;;3.28;;
29816;SDS011;16805;52.956;5.906;2024-02-21T06:59:52;13.65;;;2.95;;
29816;SDS011;16805;52.956;5.906;2024-02-21T07:02:37;10.90;;;2.72;;
29816;SDS011;16805;52.956;5.906;2024-02-21T07:05:04;26.45;;;3.28;;
29816;SDS011;16805;52.956;5.906;2024-02-21T07:07:31;13.13;;;2.28;;
29816;SDS011;16805;52.956;5.906;2024-02-21T07:09:57;17.10;;;2.83;;
29816;SDS011;16805;52.956;5.906;2024-02-21T07:12:26;9.60;;;2.50;;
29816;SDS011;16805;52.956;5.906;2024-02-21T07:14:55;7.40;;;2.33;;
29816;SDS011;16805;52.956;5.906;2024-02-21T07:17:21;17.77;;;2.13;;
29816;SDS011;16805;52.956;5.906;2024-02-21T07:19:55;8.57;;;2.13;;
29816;SDS011;16805;52.956;5.906;2024-02-21T07:22:27;7.47;;;1.70;;
29816;SDS011;16805;52.956;5.906;2024-02-21T07:24:55;12.20;;;2.20;;
29816;SDS011;16805;52.956;5.906;2024-02-21T07:27:22;14.50;;;2.25;;
29816;SDS011;16805;52.956;5.906;2024-02-21T07:29:53;7.78;;;2.45;;
29816;SDS011;16805;52.956;5.906;2024-02-21T07:32:22;15.90;;;2.65;;
29816;SDS011;16805;52.956;5.906;2024-02-21T07:34:50;9.05;;;2.97;;
29816;SDS011;16805;52.956;5.906;2024-02-21T07:37:16;8.43;;;2.92;;
29816;SDS011;16805;52.956;5.906;2024-02-21T07:39:45;6.43;;;2.58;;
29816;SDS011;16805;52.956;5.906;2024-02-21T07:42:10;15.07;;;2.60;;
29816;SDS011;16805;52.956;5.906;2024-02-21T07:44:36;4.88;;;2.67;;
29816;SDS011;16805;52.956;5.906;2024-02-21T07:47:02;10.90;;;2.55;;
29816;SDS011;16805;52.956;5.906;2024-02-21T07:49:28;11.10;;;2.80;;
29816;SDS011;16805;52.956;5.906;2024-02-21T07:51:53;8.15;;;3.38;;
29816;SDS011;16805;52.956;5.906;2024-02-21T07:54:20;14.32;;;3.80;;
29816;SDS011;16805;52.956;5.906;2024-02-21T07:56:47;27.08;;;4.68;;
29816;SDS011;16805;52.956;5.906;2024-02-21T07:59:13;13.50;;;5.00;;
29816;SDS011;16805;52.956;5.906;2024-02-21T08:01:40;20.88;;;6.80;;
29816;SDS011;16805;52.956;5.906;2024-02-21T13:29:47;3.95;;;3.35;;
29816;SDS011;16805;52.956;5.906;2024-02-21T13:32:19;3.88;;;3.53;;
29816;SDS011;16805;52.956;5.906;2024-02-21T13:34:48;5.05;;;3.22;;
29816;SDS011;16805;52.956;5.906;2024-02-21T13:37:18;8.30;;;4.35;;
29816;SDS011;16805;52.956;5.906;2024-02-21T13:39:46;5.73;;;3.50;;
29816;SDS011;16805;52.956;5.906;2024-02-21T13:42:14;6.13;;;4.65;;
29816;SDS011;16805;52.956;5.906;2024-02-21T13:44:44;7.05;;;4.57;;
29816;SDS011;16805;52.956;5.906;2024-02-21T13:47:16;5.03;;;3.60;;
29816;SDS011;16805;52.956;5.906;2024-02-21T13:49:48;6.22;;;4.63;;
29816;SDS011;16805;52.956;5.906;2024-02-21T13:52:52;5.80;;;4.68;;
29816;SDS011;16805;52.956;5.906;2024-02-21T13:55:18;4.88;;;3.00;;
29816;SDS011;16805;52.956;5.906;2024-02-21T13:57:47;10.32;;;4.65;;
29816;SDS011;16805;52.956;5.906;2024-02-21T14:00:17;3.95;;;3.40;;
29816;SDS011;16805;52.956;5.906;2024-02-21T14:02:47;6.40;;;4.90;;
29816;SDS011;16805;52.956;5.906;2024-02-21T14:05:12;5.05;;;4.50;;
29816;SDS011;16805;52.956;5.906;2024-02-21T14:07:57;7.15;;;3.75;;
29816;SDS011;16805;52.956;5.906;2024-02-21T14:34:43;3.92;;;3.60;;
29816;SDS011;16805;52.956;5.906;2024-02-21T15:45:19;6.45;;;3.92;;
29816;SDS011;16805;52.956;5.906;2024-02-21T15:47:46;5.47;;;4.28;;
29816;SDS011;16805;52.956;5.906;2024-02-21T15:50:21;7.90;;;4.18;;
29816;SDS011;16805;52.956;5.906;2024-02-21T15:53:05;9.70;;;3.75;;
29816;SDS011;16805;52.956;5.906;2024-02-21T15:55:40;13.65;;;6.03;;
29816;SDS011;16805;52.956;5.906;2024-02-21T15:58:16;8.88;;;4.47;;
29816;SDS011;16805;52.956;5.906;2024-02-21T16:07:41;12.93;;;6.78;;
29816;SDS011;16805;52.956;5.906;2024-02-21T16:17:40;9.20;;;4.27;;
29816;SDS011;16805;52.956;5.906;2024-02-21T17:17:57;2.70;;;1.60;;
29816;SDS011;16805;52.956;5.906;2024-02-21T17:20:58;3.97;;;2.78;;
29816;SDS011;16805;52.956;5.906;2024-02-21T17:24:16;2.33;;;1.88;;
29816;SDS011;16805;52.956;5.906;2024-02-21T17:26:58;2.90;;;2.08;;
29816;SDS011;16805;52.956;5.906;2024-02-21T17:29:30;2.60;;;2.10;;
29816;SDS011;16805;52.956;5.906;2024-02-21T17:32:18;6.30;;;2.80;;
29816;SDS011;16805;52.956;5.906;2024-02-21T17:35:09;4.43;;;1.60;;
29816;SDS011;16805;52.956;5.906;2024-02-21T17:37:40;5.32;;;2.17;;
29816;SDS011;16805;52.956;5.906;2024-02-21T17:40:49;3.17;;;1.92;;
29816;SDS011;16805;52.956;5.906;2024-02-21T17:43:28;4.88;;;1.75;;
29816;SDS011;16805;52.956;5.906;2024-02-21T17:46:03;2.58;;;2.22;;
29816;SDS011;16805;52.956;5.906;2024-02-21T17:52:27;2.78;;;1.60;;
29816;SDS011;16805;52.956;5.906;2024-02-21T17:55:09;4.95;;;1.98;;
29816;SDS011;16805;52.956;5.906;2024-02-21T17:57:40;4.10;;;2.65;;
29816;SDS011;16805;52.956;5.906;2024-02-21T18:00:10;5.03;;;3.03;;
29816;SDS011;16805;52.956;5.906;2024-02-21T18:03:03;3.28;;;2.80;;
29816;SDS011;16805;52.956;5.906;2024-02-21T18:05:58;8.70;;;3.15;;
29816;SDS011;16805;52.956;5.906;2024-02-21T18:08:30;4.22;;;2.58;;
29816;SDS011;16805;52.956;5.906;2024-02-21T18:14:36;6.88;;;2.83;;
29816;SDS011;16805;52.956;5.906;2024-02-21T18:17:09;2.85;;;2.00;;
29816;SDS011;16805;52.956;5.906;2024-02-21T18:19:57;1.85;;;1.40;;
29816;SDS011;16805;52.956;5.906;2024-02-21T18:22:28;3.40;;;2.38;;
29816;SDS011;16805;52.956;5.906;2024-02-21T18:24:58;5.75;;;2.33;;
29816;SDS011;16805;52.956;5.906;2024-02-21T18:27:27;6.25;;;2.50;;
29816;SDS011;16805;52.956;5.906;2024-02-21T18:29:59;3.28;;;2.45;;
29816;SDS011;16805;52.956;5.906;2024-02-21T18:32:27;1.80;;;0.98;;
29816;SDS011;16805;52.956;5.906;2024-02-21T18:34:57;1.90;;;1.40;;
29816;SDS011;16805;52.956;5.906;2024-02-21T18:37:56;3.40;;;2.20;;
29816;SDS011;16805;52.956;5.906;2024-02-21T18:40:23;1.25;;;1.15;;
29816;SDS011;16805;52.956;5.906;2024-02-21T18:42:50;12.60;;;2.05;;
29816;SDS011;16805;52.956;5.906;2024-02-21T18:45:17;2.03;;;1.83;;
29816;SDS011;16805;52.956;5.906;2024-02-21T18:47:48;4.82;;;2.40;;
29816;SDS011;16805;52.956;5.906;2024-02-21T18:50:18;3.60;;;1.90;;
29816;SDS011;16805;52.956;5.906;2024-02-21T18:52:44;2.70;;;2.05;;
29816;SDS011;16805;52.956;5.906;2024-02-21T18:55:26;2.60;;;1.65;;
29816;SDS011;16805;52.956;5.906;2024-02-21T18:58:19;3.00;;;2.38;;
29816;SDS011;16805;52.956;5.906;2024-02-21T19:00:57;3.03;;;2.13;;
29816;SDS011;16805;52.956;5.906;2024-02-21T19:03:30;2.58;;;1.75;;
29816;SDS011;16805;52.956;5.906;2024-02-21T19:05:56;3.15;;;2.33;;
29816;SDS011;16805;52.956;5.906;2024-02-21T19:08:25;5.57;;;2.50;;
29816;SDS011;16805;52.956;5.906;2024-02-21T19:11:03;3.05;;;2.35;;
29816;SDS011;16805;52.956;5.906;2024-02-21T19:13:48;2.47;;;1.80;;
29816;SDS011;16805;52.956;5.906;2024-02-21T19:16:19;3.05;;;2.25;;
29816;SDS011;16805;52.956;5.906;2024-02-21T19:19:06;2.38;;;1.70;;
29816;SDS011;16805;52.956;5.906;2024-02-21T19:22:33;2.22;;;1.88;;
29816;SDS011;16805;52.956;5.906;2024-02-21T19:28:27;3.92;;;1.95;;
29816;SDS011;16805;52.956;5.906;2024-02-21T19:30:57;2.40;;;1.73;;
29816;SDS011;16805;52.956;5.906;2024-02-21T19:33:28;2.72;;;1.88;;
29816;SDS011;16805;52.956;5.906;2024-02-21T19:36:33;2.20;;;1.98;;
29816;SDS011;16805;52.956;5.906;2024-02-21T19:43:06;3.58;;;1.95;;
29816;SDS011;16805;52.956;5.906;2024-02-21T19:46:17;2.15;;;1.85;;
29816;SDS011;16805;52.956;5.906;2024-02-21T19:48:57;5.80;;;2.20;;
29816;SDS011;16805;52.956;5.906;2024-02-21T19:51:29;2.30;;;2.10;;
29816;SDS011;16805;52.956;5.906;2024-02-21T19:54:05;5.25;;;2.05;;
29816;SDS011;16805;52.956;5.906;2024-02-21T19:56:31;2.20;;;1.98;;
29816;SDS011;16805;52.956;5.906;2024-02-21T19:58:58;2.90;;;2.45;;
29816;SDS011;16805;52.956;5.906;2024-02-21T20:01:31;3.03;;;1.88;;
29816;SDS011;16805;52.956;5.906;2024-02-21T20:04:02;1.88;;;1.70;;
29816;SDS011;16805;52.956;5.906;2024-02-21T20:06:49;2.70;;;1.80;;
29816;SDS011;16805;52.956;5.906;2024-02-21T20:09:17;2.72;;;2.08;;
29816;SDS011;16805;52.956;5.906;2024-02-21T20:11:50;3.22;;;2.13;;
29816;SDS011;16805;52.956;5.906;2024-02-21T20:14:22;2.95;;;2.40;;
29816;SDS011;16805;52.956;5.906;2024-02-21T20:16:51;2.45;;;2.13;;
29816;SDS011;16805;52.956;5.906;2024-02-21T20:19:19;2.38;;;2.15;;
29816;SDS011;16805;52.956;5.906;2024-02-21T20:22:08;2.20;;;2.00;;
29816;SDS011;16805;52.956;5.906;2024-02-21T20:24:44;2.25;;;2.05;;
29816;SDS011;16805;52.956;5.906;2024-02-21T20:27:20;2.10;;;1.83;;
29816;SDS011;16805;52.956;5.906;2024-02-21T20:30:15;3.50;;;2.63;;
29816;SDS011;16805;52.956;5.906;2024-02-21T20:32:54;2.58;;;2.15;;
29816;SDS011;16805;52.956;5.906;2024-02-21T20:35:22;2.20;;;2.00;;
29816;SDS011;16805;52.956;5.906;2024-02-21T20:37:47;3.30;;;2.03;;
29816;SDS011;16805;52.956;5.906;2024-02-21T20:40:13;3.33;;;3.03;;
29816;SDS011;16805;52.956;5.906;2024-02-21T20:42:43;2.60;;;2.28;;
29816;SDS011;16805;52.956;5.906;2024-02-21T20:45:16;2.70;;;2.30;;
29816;SDS011;16805;52.956;5.906;2024-02-21T20:47:43;2.90;;;2.47;;
29816;SDS011;16805;52.956;5.906;2024-02-21T20:50:12;3.83;;;3.50;;
29816;SDS011;16805;52.956;5.906;2024-02-21T20:52:38;2.22;;;2.03;;
29816;SDS011;16805;52.956;5.906;2024-02-21T20:55:16;2.88;;;2.33;;
29816;SDS011;16805;52.956;5.906;2024-02-21T20:57:52;3.20;;;2.33;;
29816;SDS011;16805;52.956;5.906;2024-02-21T21:04:22;1.47;;;1.37;;
29816;SDS011;16805;52.956;5.906;2024-02-21T21:10:52;2.50;;;2.17;;
29816;SDS011;16805;52.956;5.906;2024-02-21T21:17:28;1.75;;;1.65;;
29816;SDS011;16805;52.956;5.906;2024-02-21T21:23:19;3.08;;;2.20;;
29816;SDS011;16805;52.956;5.906;2024-02-21T21:26:15;2.60;;;2.00;;
29816;SDS011;16805;52.956;5.906;2024-02-21T21:29:13;2.85;;;2.33;;
29816;SDS011;16805;52.956;5.906;2024-02-21T21:32:33;2.85;;;2.40;;
29816;SDS011;16805;52.956;5.906;2024-02-21T21:34:59;3.35;;;2.25;;
29816;SDS011;16805;52.956;5.906;2024-02-21T21:37:29;2.33;;;2.00;;
29816;SDS011;16805;52.956;5.906;2024-02-21T21:43:20;1.50;;;1.40;;
29816;SDS011;16805;52.956;5.906;2024-02-21T21:45:52;2.10;;;1.90;;
29816;SDS011;16805;52.956;5.906;2024-02-21T21:48:20;1.73;;;1.55;;
29816;SDS011;16805;52.956;5.906;2024-02-21T21:53:53;2.20;;;1.98;;
29816;SDS011;16805;52.956;5.906;2024-02-21T21:56:21;2.40;;;2.20;;
29816;SDS011;16805;52.956;5.906;2024-02-21T21:58:51;2.13;;;1.92;;
29816;SDS011;16805;52.956;5.906;2024-02-21T22:01:17;2.13;;;1.75;;
29816;SDS011;16805;52.956;5.906;2024-02-21T22:03:43;2.20;;;2.00;;
29816;SDS011;16805;52.956;5.906;2024-02-21T22:06:09;3.25;;;2.15;;
29816;SDS011;16805;52.956;5.906;2024-02-21T22:08:39;3.63;;;2.25;;
29816;SDS011;16805;52.956;5.906;2024-02-21T22:11:11;2.63;;;2.40;;
29816;SDS011;16805;52.956;5.906;2024-02-21T22:13:39;2.95;;;2.65;;
29816;SDS011;16805;52.956;5.906;2024-02-21T22:16:06;3.70;;;2.00;;
29816;SDS011;16805;52.956;5.906;2024-02-21T22:18:35;3.22;;;2.92;;
29816;SDS011;16805;52.956;5.906;2024-02-21T22:21:02;2.97;;;2.67;;
29816;SDS011;16805;52.956;5.906;2024-02-21T22:23:29;2.65;;;2.45;;
29816;SDS011;16805;52.956;5.906;2024-02-21T22:25:55;2.63;;;2.42;;
29816;SDS011;16805;52.956;5.906;2024-02-21T22:28:22;2.10;;;1.90;;
29816;SDS011;16805;52.956;5.906;2024-02-21T22:30:49;3.00;;;2.70;;
29816;SDS011;16805;52.956;5.906;2024-02-21T22:33:24;3.22;;;2.55;;
29816;SDS011;16805;52.956;5.906;2024-02-21T22:35:52;4.18;;;2.85;;
29816;SDS011;16805;52.956;5.906;2024-02-21T22:38:21;3.28;;;2.72;;
29816;SDS011;16805;52.956;5.906;2024-02-21T22:40:46;2.53;;;2.20;;
29816;SDS011;16805;52.956;5.906;2024-02-21T22:43:17;2.65;;;2.38;;
29816;SDS011;16805;52.956;5.906;2024-02-21T22:45:44;2.83;;;2.33;;
29816;SDS011;16805;52.956;5.906;2024-02-21T22:48:14;4.00;;;2.83;;
29816;SDS011;16805;52.956;5.906;2024-02-21T22:50:47;2.80;;;2.60;;
29816;SDS011;16805;52.956;5.906;2024-02-21T22:53:13;2.60;;;2.35;;
29816;SDS011;16805;52.956;5.906;2024-02-21T22:55:42;2.47;;;2.28;;
29816;SDS011;16805;52.956;5.906;2024-02-21T22:58:09;2.90;;;2.60;;
29816;SDS011;16805;52.956;5.906;2024-02-21T23:00:35;2.40;;;2.10;;
29816;SDS011;16805;52.956;5.906;2024-02-21T23:03:01;2.65;;;2.33;;
29816;SDS011;16805;52.956;5.906;2024-02-21T23:05:33;2.90;;;2.60;;
29816;SDS011;16805;52.956;5.906;2024-02-21T23:08:00;2.85;;;2.58;;
29816;SDS011;16805;52.956;5.906;2024-02-21T23:10:26;2.72;;;2.53;;
29816;SDS011;16805;52.956;5.906;2024-02-21T23:12:52;3.03;;;2.72;;
29816;SDS011;16805;52.956;5.906;2024-02-21T23:15:19;3.00;;;2.70;;
29816;SDS011;16805;52.956;5.906;2024-02-21T23:17:45;3.10;;;2.40;;
29816;SDS011;16805;52.956;5.906;2024-02-21T23:20:10;3.08;;;2.70;;
29816;SDS011;16805;52.956;5.906;2024-02-21T23:22:36;3.72;;;2.88;;
29816;SDS011;16805;52.956;5.906;2024-02-21T23:25:04;2.60;;;2.40;;
29816;SDS011;16805;52.956;5.906;2024-02-21T23:27:29;2.80;;;2.53;;
29816;SDS011;16805;52.956;5.906;2024-02-21T23:32:33;2.63;;;2.42;;
29816;SDS011;16805;52.956;5.906;2024-02-21T23:35:00;3.53;;;2.70;;
29816;SDS011;16805;52.956;5.906;2024-02-21T23:37:26;3.10;;;2.80;;
29816;SDS011;16805;52.956;5.906;2024-02-21T23:39:51;3.33;;;3.03;;
29816;SDS011;16805;52.956;5.906;2024-02-21T23:42:17;2.58;;;2.38;;
29816;SDS011;16805;52.956;5.906;2024-02-21T23:44:42;3.70;;;3.38;;
29816;SDS011;16805;52.956;5.906;2024-02-21T23:47:08;3.15;;;2.85;;
29816;SDS011;16805;52.956;5.906;2024-02-21T23:49:36;4.30;;;3.20;;
29816;SDS011;16805;52.956;5.906;2024-02-21T23:52:01;3.13;;;2.70;;
29816;SDS011;16805;52.956;5.906;2024-02-21T23:54:28;3.95;;;3.30;;
29816;SDS011;16805;52.956;5.906;2024-02-21T23:56:54;3.75;;;3.33;;
29816;SDS011;16805;52.956;5.906;2024-02-21T23:59:20;5.10;;;3.40;;
